createdAt,value
2022-11-24T00:02:03.714Z,99819.63
2022-11-24T00:04:32.086Z,99820.94
2022-11-24T00:07:00.344Z,99826.53
2022-11-24T00:09:33.957Z,99825.38
2022-11-24T00:12:06.748Z,99826.84
2022-11-24T00:14:37.646Z,99829.81
2022-11-24T00:17:05.743Z,99834.53
2022-11-24T00:19:33.907Z,99842.50
2022-11-24T00:22:07.948Z,99842.66
2022-11-24T00:24:38.390Z,99841.63
2022-11-24T00:27:10.488Z,99841.78
2022-11-24T00:29:38.604Z,99849.00
2022-11-24T00:32:07.152Z,99856.22
2022-11-24T00:34:42.026Z,99854.16
2022-11-24T00:37:09.951Z,99855.63
2022-11-24T00:39:41.092Z,99857.81
2022-11-24T00:42:18.607Z,99864.31
2022-11-24T00:44:46.667Z,99855.94
2022-11-24T00:47:17.894Z,99863.00
2022-11-24T00:49:46.120Z,99826.38
2022-11-24T00:52:14.181Z,99876.06
2022-11-24T00:54:49.801Z,99871.25
2022-11-24T00:57:22.377Z,99878.44
2022-11-24T00:59:50.346Z,99880.22
2022-11-24T01:02:19.984Z,99879.47
2022-11-24T01:04:48.020Z,99873.16
2022-11-24T01:07:16.210Z,99870.19
2022-11-24T01:09:47.179Z,99878.88
2022-11-24T01:12:15.491Z,99876.38
2022-11-24T01:15:12.702Z,99884.91
2022-11-24T01:17:40.748Z,99877.84
2022-11-24T01:20:12.094Z,99881.09
2022-11-24T01:22:41.603Z,99886.38
2022-11-24T01:25:11.064Z,99892.72
2022-11-24T01:27:39.604Z,99892.81
2022-11-24T01:30:11.104Z,99889.00
2022-11-24T01:32:39.229Z,99890.63
2022-11-24T01:35:10.391Z,99894.63
2022-11-24T01:37:41.440Z,99889.28
2022-11-24T01:40:11.632Z,99889.31
2022-11-24T01:42:48.277Z,99890.94
2022-11-24T01:45:35.136Z,99896.69
2022-11-24T01:48:08.900Z,99900.75
2022-11-24T01:50:37.638Z,99899.16
2022-11-24T01:53:06.367Z,99907.09
2022-11-24T01:55:39.002Z,99873.97
2022-11-24T01:58:11.125Z,99906.66
2022-11-24T02:00:45.272Z,99911.94
2022-11-24T02:03:18.725Z,99911.38
2022-11-24T02:05:59.716Z,99899.88
2022-11-24T02:08:34.080Z,99915.19
2022-11-24T02:11:06.524Z,99912.81
2022-11-24T02:13:39.841Z,99910.94
2022-11-24T02:16:12.055Z,99888.72
2022-11-24T02:18:41.332Z,99910.66
2022-11-24T02:21:10.721Z,99919.31
2022-11-24T02:23:45.968Z,99908.56
2022-11-24T02:26:23.531Z,99922.41
2022-11-24T02:28:53.957Z,99922.13
2022-11-24T02:31:22.203Z,99927.13
2022-11-24T02:33:56.293Z,99923.28
2022-11-24T02:36:33.328Z,99923.28
2022-11-24T02:39:01.345Z,99907.25
2022-11-24T02:41:30.158Z,99938.44
2022-11-24T02:44:03.347Z,99932.56
2022-11-24T02:46:31.362Z,99930.34
2022-11-24T02:48:59.352Z,99936.38
2022-11-24T02:51:28.061Z,99930.22
2022-11-24T02:53:56.038Z,99942.84
2022-11-24T02:56:26.721Z,99938.56
2022-11-24T02:58:54.856Z,99948.00
2022-11-24T03:01:24.516Z,99942.25
2022-11-24T03:04:00.797Z,99949.91
2022-11-24T03:06:28.757Z,99949.19
2022-11-24T03:08:56.796Z,99950.34
2022-11-24T03:11:26.042Z,99946.38
2022-11-24T03:13:54.036Z,99959.03
2022-11-24T03:16:22.188Z,99951.38
2022-11-24T03:18:53.701Z,99959.59
2022-11-24T03:21:25.689Z,99957.41
2022-11-24T03:24:02.466Z,99959.19
2022-11-24T03:26:36.938Z,99971.69
2022-11-24T03:29:05.306Z,99964.19
2022-11-24T03:31:33.427Z,99969.19
2022-11-24T03:34:03.269Z,99963.56
2022-11-24T03:36:39.825Z,99973.75
2022-11-24T03:39:08.461Z,99972.72
2022-11-24T03:41:54.756Z,99977.88
2022-11-24T03:44:23.063Z,99976.97
2022-11-24T03:46:54.182Z,99974.63
2022-11-24T03:49:26.205Z,99975.38
2022-11-24T03:51:57.237Z,99979.50
2022-11-24T03:54:25.473Z,99980.53
2022-11-24T03:56:58.529Z,99981.56
2022-11-24T03:59:26.564Z,99979.34
2022-11-24T04:01:55.047Z,99992.91
2022-11-24T04:04:32.732Z,99991.41
2022-11-24T04:07:00.935Z,99995.81
2022-11-24T04:09:29.128Z,99998.63
2022-11-24T04:12:17.437Z,99993.19
2022-11-24T04:14:45.302Z,99999.66
2022-11-24T04:17:15.461Z,99999.34
2022-11-24T04:19:44.660Z,99983.03
2022-11-24T04:22:12.924Z,100011.88
2022-11-24T04:24:41.956Z,100008.66
2022-11-24T04:27:09.981Z,100012.63
2022-11-24T04:29:50.432Z,100001.00
2022-11-24T04:32:20.627Z,99997.59
2022-11-24T04:34:49.976Z,100003.94
2022-11-24T04:37:18.242Z,100010.09
2022-11-24T04:39:46.391Z,100015.28
2022-11-24T04:42:17.654Z,99999.97
2022-11-24T04:44:45.577Z,100018.34
2022-11-24T04:47:17.123Z,100008.50
2022-11-24T04:49:45.060Z,100031.19
2022-11-24T04:52:21.719Z,100032.94
2022-11-24T04:54:50.583Z,100031.91
2022-11-24T04:57:20.523Z,100039.56
2022-11-24T04:59:48.464Z,100020.88
2022-11-24T05:02:16.409Z,100045.03
2022-11-24T05:04:44.366Z,100046.19
2022-11-24T05:07:18.853Z,100035.00
2022-11-24T05:10:06.557Z,100037.47
2022-11-24T05:12:45.854Z,100044.09
2022-11-24T05:15:20.229Z,100045.97
2022-11-24T05:17:50.196Z,100048.06
2022-11-24T05:20:18.510Z,100050.38
2022-11-24T05:22:46.630Z,100052.59
2022-11-24T05:25:16.294Z,100051.69
2022-11-24T05:27:44.197Z,100065.50
2022-11-24T05:30:14.894Z,100060.66
2022-11-24T05:32:42.751Z,100059.63
2022-11-24T05:35:11.124Z,100042.06
2022-11-24T05:37:41.793Z,100071.50
2022-11-24T05:40:10.540Z,100048.03
2022-11-24T05:42:47.313Z,100080.44
2022-11-24T05:45:20.383Z,100084.97
2022-11-24T05:47:49.622Z,100077.13
2022-11-24T05:50:19.121Z,100088.16
2022-11-24T05:52:47.447Z,100086.00
2022-11-24T05:55:16.414Z,100090.44
2022-11-24T05:58:09.202Z,100060.38
2022-11-24T06:00:37.793Z,100096.78
2022-11-24T06:03:05.811Z,100095.44
2022-11-24T06:05:38.843Z,100099.91
2022-11-24T06:08:06.749Z,100100.53
2022-11-24T06:10:36.953Z,100098.63
2022-11-24T06:13:08.657Z,100102.03
2022-11-24T06:15:38.654Z,100107.38
2022-11-24T06:18:06.761Z,100096.94
2022-11-24T06:20:34.593Z,100112.09
2022-11-24T06:23:05.495Z,100111.91
2022-11-24T06:25:33.638Z,100106.84
2022-11-24T06:28:04.868Z,100121.41
2022-11-24T06:30:36.732Z,100129.34
2022-11-24T06:33:04.662Z,100115.81
2022-11-24T06:35:32.727Z,100133.44
2022-11-24T06:38:00.713Z,100130.81
2022-11-24T06:40:28.806Z,100129.63
2022-11-24T06:42:57.119Z,100132.41
2022-11-24T06:45:25.135Z,100113.56
2022-11-24T06:47:56.774Z,100123.94
2022-11-24T06:50:29.208Z,100136.91
2022-11-24T06:53:00.149Z,100132.09
2022-11-24T06:55:28.474Z,100134.91
2022-11-24T06:57:56.311Z,100139.75
2022-11-24T07:00:25.173Z,100142.13
2022-11-24T07:02:53.074Z,100148.72
2022-11-24T07:05:22.394Z,100120.28
2022-11-24T07:07:51.220Z,100149.47
2022-11-24T07:10:20.037Z,100150.81
2022-11-24T07:12:48.061Z,100154.50
2022-11-24T07:15:21.711Z,100159.06
2022-11-24T07:17:49.568Z,100161.56
2022-11-24T07:20:17.967Z,100163.97
2022-11-24T07:22:47.455Z,100159.97
2022-11-24T07:25:21.128Z,100169.88
2022-11-24T07:27:49.000Z,100161.03
2022-11-24T07:30:20.045Z,100176.06
2022-11-24T07:32:48.195Z,100178.41
2022-11-24T07:35:22.154Z,100180.16
2022-11-24T07:37:53.985Z,100188.09
2022-11-24T07:40:21.916Z,100197.25
2022-11-24T07:42:49.949Z,100201.38
2022-11-24T07:45:18.101Z,100208.56
2022-11-24T07:47:46.101Z,100205.19
2022-11-24T07:50:14.033Z,100212.84
2022-11-24T07:52:44.175Z,100205.94
2022-11-24T07:55:13.591Z,100215.25
2022-11-24T07:57:44.532Z,100221.44
2022-11-24T08:00:13.645Z,100221.16
2022-11-24T08:02:47.534Z,100226.31
2022-11-24T08:05:18.442Z,100232.78
2022-11-24T08:07:46.470Z,100226.44
2022-11-24T08:10:21.611Z,100231.75
2022-11-24T08:12:49.574Z,100234.53
2022-11-24T08:15:20.585Z,100224.03
2022-11-24T08:17:48.456Z,100232.72
2022-11-24T08:20:16.593Z,100195.53
2022-11-24T08:22:44.897Z,100239.34
2022-11-24T08:25:15.241Z,100235.66
2022-11-24T08:27:44.665Z,100239.19
2022-11-24T08:30:16.528Z,100238.63
2022-11-24T08:32:44.369Z,100221.41
2022-11-24T08:35:16.531Z,100239.41
2022-11-24T08:37:44.848Z,100236.13
2022-11-24T08:40:14.394Z,100249.13
2022-11-24T08:42:42.434Z,100242.94
2022-11-24T08:45:24.703Z,100249.41
2022-11-24T08:47:54.823Z,100261.22
2022-11-24T08:50:23.531Z,100264.63
2022-11-24T08:52:54.957Z,100270.41
2022-11-24T08:55:22.947Z,100265.13
2022-11-24T08:57:50.729Z,100263.19
2022-11-24T09:00:24.066Z,100250.06
2022-11-24T09:02:59.534Z,100296.09
2022-11-24T09:05:51.260Z,100299.19
2022-11-24T09:08:15.235Z,100291.84
2022-11-24T09:10:43.083Z,100306.78
2022-11-24T09:13:10.969Z,100300.13
2022-11-24T09:15:40.236Z,100303.50
2022-11-24T09:18:08.297Z,100306.31
2022-11-24T09:20:38.344Z,100307.03
2022-11-24T09:23:06.288Z,100309.41
2022-11-24T09:25:34.253Z,100310.13
2022-11-24T09:28:02.227Z,100307.13
2022-11-24T09:30:30.357Z,100308.47
2022-11-24T09:33:00.567Z,100308.44
2022-11-24T09:35:31.887Z,100310.81
2022-11-24T09:37:59.695Z,100286.16
2022-11-24T09:40:28.032Z,100291.75
2022-11-24T09:43:02.708Z,100305.59
2022-11-24T09:46:04.877Z,100306.94
2022-11-24T09:48:51.722Z,100312.31
2022-11-24T09:51:24.972Z,100311.44
2022-11-24T09:53:59.032Z,100316.94
2022-11-24T09:56:31.726Z,100314.44
2022-11-24T09:59:03.843Z,100318.84
2022-11-24T10:01:43.442Z,100297.94
2022-11-24T10:04:17.695Z,100321.38
2022-11-24T10:06:52.155Z,100310.19
2022-11-24T10:09:49.719Z,100320.97
2022-11-24T10:12:37.854Z,100321.41
2022-11-24T10:15:28.838Z,100326.41
2022-11-24T10:18:16.416Z,100325.66
2022-11-24T10:20:56.804Z,100324.34
2022-11-24T10:23:40.825Z,100331.00
2022-11-24T10:26:16.963Z,100329.94
2022-11-24T10:28:54.704Z,100328.78
2022-11-24T10:31:31.840Z,100336.28
2022-11-24T10:34:03.982Z,100333.91
2022-11-24T10:36:44.517Z,100341.72
2022-11-24T10:39:20.423Z,100341.56
2022-11-24T10:41:53.594Z,100341.53
2022-11-24T10:44:30.609Z,100336.38
2022-11-24T10:46:59.330Z,100340.88
2022-11-24T10:49:34.395Z,100339.41
2022-11-24T10:52:09.464Z,100341.09
2022-11-24T10:55:03.309Z,100334.22
2022-11-24T10:57:33.907Z,100337.56
2022-11-24T11:00:03.467Z,100331.06
2022-11-24T11:02:38.040Z,100337.09
2022-11-24T11:05:38.096Z,100333.50
2022-11-24T11:08:25.849Z,100336.63
2022-11-24T11:11:31.026Z,100336.31
2022-11-24T11:14:04.728Z,100343.50
2022-11-24T11:16:38.192Z,100343.34
2022-11-24T11:22:25.865Z,100348.97
2022-11-24T11:25:21.811Z,100348.00
2022-11-24T11:27:51.662Z,100355.16
2022-11-24T11:36:15.100Z,100356.19
2022-11-24T11:38:44.993Z,100359.53
2022-11-24T11:41:21.670Z,100364.91
2022-11-24T11:43:55.792Z,100368.91
2022-11-24T11:46:51.611Z,100365.88
2022-11-24T11:49:22.127Z,100369.94
2022-11-24T11:52:05.059Z,100362.56
2022-11-24T11:54:50.746Z,100338.97
2022-11-24T11:57:28.225Z,100373.78
2022-11-24T12:00:10.636Z,100377.31
2022-11-24T12:02:56.680Z,100382.34
2022-11-24T12:05:32.170Z,100363.84
2022-11-24T12:08:21.551Z,100388.06
2022-11-24T12:10:57.169Z,100382.47
2022-11-24T12:13:53.972Z,100387.50
2022-11-24T12:16:31.279Z,100389.53
2022-11-24T12:19:32.381Z,100399.59
2022-11-24T12:22:10.215Z,100396.97
2022-11-24T12:24:51.220Z,100399.69
2022-11-24T12:27:30.235Z,100408.72
2022-11-24T12:30:11.715Z,100407.25
2022-11-24T12:33:10.043Z,100371.22
2022-11-24T12:35:41.157Z,100403.72
2022-11-24T12:38:38.537Z,100416.38
2022-11-24T12:41:41.124Z,100416.75
2022-11-24T12:44:22.014Z,100417.31
2022-11-24T12:47:03.108Z,100411.63
2022-11-24T12:49:40.137Z,100421.94
2022-11-24T12:52:17.873Z,100421.59
2022-11-24T12:54:45.705Z,100422.78
2022-11-24T12:57:22.143Z,100425.69
2022-11-24T12:59:58.840Z,100430.00
2022-11-24T13:02:39.567Z,100411.16
2022-11-24T13:05:23.547Z,100434.63
2022-11-24T13:07:58.196Z,100430.03
2022-11-24T13:10:58.057Z,100432.16
2022-11-24T13:13:31.343Z,100435.00
2022-11-24T13:19:14.758Z,100450.88
2022-11-24T13:21:57.627Z,100451.44
2022-11-24T13:24:30.897Z,100458.66
2022-11-24T13:27:32.494Z,100462.97
2022-11-24T13:30:01.246Z,100466.22
2022-11-24T13:33:21.674Z,100463.44
2022-11-24T13:36:24.920Z,100480.78
2022-11-24T13:38:55.439Z,100473.53
2022-11-24T13:42:43.367Z,100484.09
2022-11-24T13:45:03.030Z,100494.94
2022-11-24T13:47:40.214Z,100492.88
2022-11-24T13:50:24.428Z,100492.56
2022-11-24T13:53:08.388Z,100491.53
2022-11-24T13:55:40.956Z,100498.06
2022-11-24T13:58:31.663Z,100497.19
2022-11-24T14:01:04.494Z,100498.81
2022-11-24T14:03:36.480Z,100511.25
2022-11-24T14:06:13.301Z,100511.13
2022-11-24T14:08:41.244Z,100502.38
2022-11-24T14:11:18.963Z,100511.56
2022-11-24T14:13:54.404Z,100516.31
2022-11-24T14:16:25.970Z,100516.72
2022-11-24T14:18:53.862Z,100529.75
2022-11-24T14:21:34.877Z,100527.97
2022-11-24T14:26:57.163Z,100530.03
2022-11-24T14:29:28.021Z,100536.41
2022-11-24T14:32:01.011Z,100530.50
2022-11-24T14:34:33.738Z,100501.53
2022-11-24T14:37:04.435Z,100525.19
2022-11-24T14:39:41.706Z,100541.13
2022-11-24T14:42:18.803Z,100537.78
2022-11-24T14:44:51.056Z,100539.97
2022-11-24T14:47:30.461Z,100529.63
2022-11-24T14:50:08.979Z,100536.16
2022-11-24T14:52:37.884Z,100547.09
2022-11-24T14:55:22.344Z,100542.66
2022-11-24T14:57:55.553Z,100547.25
2022-11-24T15:00:28.827Z,100554.78
2022-11-24T15:03:20.406Z,100558.34
2022-11-24T15:05:54.213Z,100555.69
2022-11-24T15:08:23.545Z,100575.50
2022-11-24T15:10:57.777Z,100579.31
2022-11-24T15:13:27.157Z,100582.59
2022-11-24T15:16:02.012Z,100576.81
2022-11-24T15:18:41.984Z,100583.63
2022-11-24T15:21:18.905Z,100579.19
2022-11-24T15:24:06.066Z,100583.50
2022-11-24T15:26:40.002Z,100581.28
2022-11-24T15:29:11.525Z,100586.13
2022-11-24T15:31:40.211Z,100583.63
2022-11-24T15:34:08.673Z,100586.13
2022-11-24T15:36:44.886Z,100595.13
2022-11-24T15:39:12.846Z,100593.50
2022-11-24T15:41:41.928Z,100596.75
2022-11-24T15:44:19.125Z,100589.34
2022-11-24T15:46:47.042Z,100586.38
2022-11-24T15:49:15.082Z,100593.72
2022-11-24T15:51:45.732Z,100595.19
2022-11-24T15:54:18.521Z,100590.88
2022-11-24T15:56:47.018Z,100607.00
2022-11-24T15:59:20.180Z,100615.59
2022-11-24T16:01:55.141Z,100605.84
2022-11-24T16:04:23.010Z,100586.38
2022-11-24T16:06:50.959Z,100612.72
2022-11-24T16:09:22.067Z,100622.75
2022-11-24T16:11:57.269Z,100617.47
2022-11-24T16:14:26.877Z,100621.88
2022-11-24T16:16:54.794Z,100630.78
2022-11-24T16:19:22.674Z,100626.03
2022-11-24T16:21:50.855Z,100631.81
2022-11-24T16:24:18.646Z,100636.09
2022-11-24T16:26:46.656Z,100634.31
2022-11-24T16:29:17.667Z,100638.31
2022-11-24T16:31:47.372Z,100634.00
2022-11-24T16:34:16.394Z,100634.00
2022-11-24T16:36:44.419Z,100628.69
2022-11-24T16:39:18.364Z,100634.75
2022-11-24T16:41:50.865Z,100638.00
2022-11-24T16:44:21.577Z,100637.09
2022-11-24T16:46:50.972Z,100611.81
2022-11-24T16:49:22.013Z,100639.94
2022-11-24T16:51:49.919Z,100621.28
2022-11-24T16:54:17.799Z,100639.47
2022-11-24T16:57:15.282Z,100647.63
2022-11-24T16:59:47.084Z,100649.94
2022-11-24T17:02:18.181Z,100656.00
2022-11-24T17:04:54.650Z,100655.28
2022-11-24T17:07:22.602Z,100659.13
2022-11-24T17:09:50.647Z,100663.97
2022-11-24T17:12:19.128Z,100662.22
2022-11-24T17:15:16.500Z,100666.50
2022-11-24T17:18:01.349Z,100666.50
2022-11-24T17:20:27.754Z,100665.00
2022-11-24T17:22:58.461Z,100660.16
2022-11-24T17:25:26.435Z,100669.00
2022-11-24T17:27:54.786Z,100670.94
2022-11-24T17:30:31.975Z,100665.16
2022-11-24T17:33:01.186Z,100667.03
2022-11-24T17:35:29.341Z,100668.47
2022-11-24T17:37:58.363Z,100671.13
2022-11-24T17:40:29.581Z,100679.53
2022-11-24T17:43:01.048Z,100671.69
2022-11-24T17:45:30.570Z,100674.03
2022-11-24T17:48:01.831Z,100664.84
2022-11-24T17:50:30.419Z,100675.78
2022-11-24T17:52:58.789Z,100677.81
2022-11-24T17:55:26.831Z,100673.50
2022-11-24T17:57:57.245Z,100680.31
2022-11-24T18:00:27.803Z,100677.72
2022-11-24T18:02:56.664Z,100688.53
2022-11-24T18:05:26.103Z,100692.84
2022-11-24T18:07:55.474Z,100688.53
2022-11-24T18:10:29.301Z,100697.31
2022-11-24T18:13:00.405Z,100691.25
2022-11-24T18:15:28.333Z,100645.78
2022-11-24T18:17:59.387Z,100692.50
2022-11-24T18:20:30.323Z,100685.38
2022-11-24T18:23:06.381Z,100697.47
2022-11-24T18:25:37.176Z,100687.66
2022-11-24T18:28:05.651Z,100685.00
2022-11-24T18:30:34.946Z,100694.19
2022-11-24T18:33:02.897Z,100693.44
2022-11-24T18:35:35.114Z,100693.13
2022-11-24T18:38:03.176Z,100695.88
2022-11-24T18:40:31.134Z,100698.34
2022-11-24T18:42:59.117Z,100694.47
2022-11-24T18:45:27.382Z,100703.47
2022-11-24T18:47:55.472Z,100700.97
2022-11-24T18:50:29.510Z,100705.69
2022-11-24T18:53:02.345Z,100715.97
2022-11-24T18:55:32.778Z,100710.31
2022-11-24T18:58:00.678Z,100706.44
2022-11-24T19:00:28.613Z,100709.81
2022-11-24T19:02:57.527Z,100704.50
2022-11-24T19:05:25.498Z,100704.91
2022-11-24T19:07:53.718Z,100701.03
2022-11-24T19:10:23.144Z,100701.13
2022-11-24T19:12:51.017Z,100705.31
2022-11-24T19:15:22.065Z,100708.78
2022-11-24T19:17:50.040Z,100710.25
2022-11-24T19:20:18.093Z,100704.34
2022-11-24T19:22:49.699Z,100709.50
2022-11-24T19:25:24.919Z,100710.78
2022-11-24T19:27:57.046Z,100707.81
2022-11-24T19:30:29.172Z,100708.38
2022-11-24T19:32:57.427Z,100703.38
2022-11-24T19:35:25.417Z,100706.13
2022-11-24T19:37:53.530Z,100717.25
2022-11-24T19:40:21.399Z,100711.00
2022-11-24T19:42:49.304Z,100714.41
2022-11-24T19:45:21.741Z,100719.41
2022-11-24T19:47:52.054Z,100725.88
2022-11-24T19:50:22.294Z,100723.06
2022-11-24T19:52:50.156Z,100725.22
2022-11-24T19:55:18.268Z,100716.72
2022-11-24T19:57:46.280Z,100713.47
2022-11-24T20:00:17.788Z,100728.25
2022-11-24T20:02:47.394Z,100729.53
2022-11-24T20:05:15.359Z,100730.81
2022-11-24T20:07:43.601Z,100724.56
2022-11-24T20:10:11.780Z,100718.03
2022-11-24T20:12:41.102Z,100724.56
2022-11-24T20:15:10.382Z,100723.88
2022-11-24T20:17:38.359Z,100725.47
2022-11-24T20:20:08.593Z,100718.53
2022-11-24T20:22:36.528Z,100728.34
2022-11-24T20:25:04.904Z,100708.94
2022-11-24T20:27:32.879Z,100736.97
2022-11-24T20:30:00.917Z,100728.81
2022-11-24T20:32:28.937Z,100733.09
2022-11-24T20:35:18.085Z,100734.53
2022-11-24T20:37:49.941Z,100731.38
2022-11-24T20:40:19.095Z,100742.81
2022-11-24T20:42:53.165Z,100739.09
2022-11-24T20:45:22.742Z,100749.25
2022-11-24T20:47:56.584Z,100746.22
2022-11-24T20:50:24.639Z,100751.81
2022-11-24T20:52:53.858Z,100752.19
2022-11-24T20:55:21.811Z,100749.00
2022-11-24T20:57:50.009Z,100755.22
2022-11-24T21:00:18.382Z,100768.78
2022-11-24T21:02:46.363Z,100763.78
2022-11-24T21:05:17.408Z,100756.34
2022-11-24T21:07:45.314Z,100768.63
2022-11-24T21:10:21.625Z,100767.91
2022-11-24T21:12:52.574Z,100769.34
2022-11-24T21:15:20.542Z,100784.91
2022-11-24T21:17:48.439Z,100781.50
2022-11-24T21:20:19.123Z,100779.00
2022-11-24T21:22:47.142Z,100789.00
2022-11-24T21:25:15.205Z,100784.00
2022-11-24T21:27:44.389Z,100786.84
2022-11-24T21:30:13.486Z,100787.56
2022-11-24T21:32:44.729Z,100788.28
2022-11-24T21:35:12.589Z,100793.28
2022-11-24T21:37:52.402Z,100786.34
2022-11-24T21:40:24.286Z,100790.44
2022-11-24T21:42:54.208Z,100792.09
2022-11-24T21:45:29.587Z,100794.44
2022-11-24T21:48:01.023Z,100803.38
2022-11-24T21:50:32.988Z,100796.41
2022-11-24T21:53:03.602Z,100797.31
2022-11-24T21:55:32.494Z,100799.63
2022-11-24T21:58:08.292Z,100796.06
2022-11-24T22:00:36.147Z,100797.50
2022-11-24T22:03:04.033Z,100782.16
2022-11-24T22:05:32.544Z,100793.03
2022-11-24T22:08:03.165Z,100795.22
2022-11-24T22:10:31.577Z,100799.69
2022-11-24T22:13:02.251Z,100788.47
2022-11-24T22:15:31.600Z,100791.13
2022-11-24T22:18:02.613Z,100792.91
2022-11-24T22:20:30.683Z,100785.44
2022-11-24T22:22:58.530Z,100794.53
2022-11-24T22:25:26.879Z,100791.31
2022-11-24T22:27:54.976Z,100792.44
2022-11-24T22:30:22.798Z,100795.25
2022-11-24T22:32:51.957Z,100794.56
2022-11-24T22:35:19.797Z,100793.28
2022-11-24T22:37:47.660Z,100792.78
2022-11-24T22:40:15.674Z,100785.84
2022-11-24T22:42:43.455Z,100792.25
2022-11-24T22:45:11.821Z,100800.50
2022-11-24T22:47:39.628Z,100796.19
2022-11-24T22:50:10.071Z,100787.25
2022-11-24T22:52:40.383Z,100786.38
2022-11-24T22:55:08.846Z,100778.88
2022-11-24T22:57:36.661Z,100782.84
2022-11-24T23:00:05.375Z,100778.53
2022-11-24T23:02:33.355Z,100781.94
2022-11-24T23:05:01.161Z,100783.53
2022-11-24T23:07:30.461Z,100783.19
2022-11-24T23:09:58.439Z,100783.56
2022-11-24T23:12:26.528Z,100782.66
2022-11-24T23:14:55.611Z,100772.69
2022-11-24T23:17:23.805Z,100776.59
2022-11-24T23:19:51.968Z,100778.75
2022-11-24T23:22:19.891Z,100778.75
2022-11-24T23:24:49.330Z,100775.38
2022-11-24T23:27:17.225Z,100780.19
2022-11-24T23:29:45.039Z,100777.69
2022-11-24T23:32:12.789Z,100770.91
2022-11-24T23:34:40.962Z,100754.53
2022-11-24T23:37:08.765Z,100760.41
2022-11-24T23:39:36.503Z,100769.66
2022-11-24T23:42:05.967Z,100764.84
2022-11-24T23:44:36.413Z,100753.78
2022-11-24T23:47:04.422Z,100761.47
2022-11-24T23:49:32.637Z,100762.19
2022-11-24T23:52:00.449Z,100764.69
2022-11-24T23:54:28.415Z,100762.53
2022-11-24T23:56:56.305Z,100760.75
2022-11-24T23:59:26.871Z,100758.41
